Time;durP1;ratioP1;P1;durP2;ratioP2;P2;SDS_P1;SDS_P2;PMS_P1;PMS_P2;Temp;Humidity;BMP_temperature;BMP_pressure;BME280_temperature;BME280_humidity;BME280_pressure;Samples;Min_cycle;Max_cycle;Signal;HPM_P1;HPM_P2
2024/01/15 00:00:29;;;;;;;0.20;0.20;;;;;;;4.62;68.63;100536.91;5077688;28;20107;-77
2024/01/15 00:02:55;;;;;;;0.75;0.75;;;;;;;4.46;68.70;100525.53;5078775;28;20550;-78
2024/01/15 00:05:21;;;;;;;0.20;0.20;;;;;;;4.52;68.74;100509.81;5077902;28;20032;-77
2024/01/15 00:07:47;;;;;;;0.20;0.20;;;;;;;4.47;68.83;100508.03;5078058;28;20032;-77
2024/01/15 00:10:13;;;;;;;0.20;0.20;;;;;;;4.46;68.51;100507.19;5078479;28;20104;-77
2024/01/15 00:12:40;;;;;;;0.20;0.20;;;;;;;4.42;68.32;100513.28;5074796;28;20082;-77
2024/01/15 00:15:06;;;;;;;0.20;0.20;;;;;;;4.39;68.64;100508.06;5081404;28;20028;-76
2024/01/15 00:17:32;;;;;;;0.20;0.20;;;;;;;4.40;68.12;100507.19;5080134;28;20025;-77
2024/01/15 00:19:59;;;;;;;0.20;0.20;;;;;;;4.35;68.06;100501.94;5072428;28;20032;-77
2024/01/15 00:22:27;;;;;;;0.20;0.20;;;;;;;4.37;68.59;100496.69;5079068;28;20095;-77
2024/01/15 00:24:53;;;;;;;0.20;0.20;;;;;;;4.30;68.21;100492.28;5080910;28;20036;-77
2024/01/15 00:27:19;;;;;;;0.20;0.20;;;;;;;4.30;67.87;100490.56;5071000;28;20028;-77
2024/01/15 00:29:45;;;;;;;0.20;0.20;;;;;;;4.24;67.67;100492.28;5082872;28;20028;-77
2024/01/15 00:32:11;;;;;;;0.22;0.22;;;;;;;4.27;68.25;100487.06;5088202;28;20036;-77
2024/01/15 00:34:38;;;;;;;0.35;0.35;;;;;;;4.26;68.39;100485.31;5083963;28;20064;-78
2024/01/15 00:37:06;;;;;;;0.20;0.20;;;;;;;4.20;67.87;100487.06;5081265;28;20115;-78
2024/01/15 00:39:33;;;;;;;0.20;0.20;;;;;;;4.17;67.91;100479.19;5078636;28;20086;-78
2024/01/15 00:41:59;;;;;;;0.20;0.20;;;;;;;4.15;68.15;100472.19;5078015;28;20036;-78
2024/01/15 00:44:25;;;;;;;0.20;0.20;;;;;;;4.13;67.61;100479.19;5083544;28;20029;-78
2024/01/15 00:46:51;;;;;;;0.20;0.20;;;;;;;4.09;68.09;100473.06;5084340;28;20029;-78
2024/01/15 00:49:18;;;;;;;0.30;0.30;;;;;;;4.08;67.17;100471.31;5075794;28;20040;-78
2024/01/15 00:51:44;;;;;;;0.20;0.20;;;;;;;4.12;67.89;100461.72;5075607;28;20384;-78
2024/01/15 00:54:10;;;;;;;0.20;0.20;;;;;;;4.11;67.63;100463.47;5083396;28;20545;-78
2024/01/15 00:56:37;;;;;;;0.20;0.20;;;;;;;4.10;67.62;100459.09;5089921;28;20471;-78
2024/01/15 00:59:03;;;;;;;0.20;0.20;;;;;;;4.02;67.90;100460.84;5089210;28;20491;-78
2024/01/15 01:01:29;;;;;;;0.20;0.20;;;;;;;4.05;67.68;100461.72;5088888;28;20036;-78
2024/01/15 01:03:56;;;;;;;0.20;0.20;;;;;;;4.09;68.20;100459.97;5086563;28;20028;-77
2024/01/15 01:06:22;;;;;;;0.20;0.20;;;;;;;4.08;68.33;100450.34;5100025;28;20028;-77
2024/01/15 01:08:48;;;;;;;0.20;0.20;;;;;;;4.11;68.29;100445.13;5097159;28;20431;-78
2024/01/15 01:11:15;;;;;;;0.20;0.20;;;;;;;4.08;68.45;100450.34;5084774;28;20032;-78
2024/01/15 01:13:42;;;;;;;0.10;0.10;;;;;;;4.06;68.60;100449.47;5094247;28;20028;-78
2024/01/15 01:16:08;;;;;;;0.20;0.20;;;;;;;4.09;68.44;100452.09;5086191;28;20035;-78
2024/01/15 01:18:36;;;;;;;0.20;0.20;;;;;;;4.10;68.15;100453.84;5096197;28;20038;-78
2024/01/15 01:21:02;;;;;;;0.20;0.20;;;;;;;4.09;68.67;100449.47;5091571;28;20160;-79
2024/01/15 01:23:29;;;;;;;0.20;0.20;;;;;;;4.10;68.60;100448.63;5089136;28;20035;-79
2024/01/15 01:25:55;;;;;;;0.20;0.20;;;;;;;4.02;68.34;100445.97;5084528;28;20085;-78
2024/01/15 01:28:21;;;;;;;0.20;0.20;;;;;;;4.09;68.75;100448.59;5088055;28;20032;-77
2024/01/15 01:30:47;;;;;;;0.20;0.20;;;;;;;4.07;68.36;100451.22;5086366;28;20036;-77
2024/01/15 01:33:13;;;;;;;0.20;0.20;;;;;;;4.07;68.61;100448.59;5089992;28;20028;-78
2024/01/15 01:35:39;;;;;;;0.20;0.20;;;;;;;4.04;68.90;100451.22;5089757;28;20040;-77
2024/01/15 01:38:06;;;;;;;0.30;0.30;;;;;;;4.04;68.75;100454.72;5079318;28;20024;-78
2024/01/15 01:40:32;;;;;;;0.20;0.20;;;;;;;4.19;68.61;100443.34;5088358;28;20597;-78
2024/01/15 01:42:58;;;;;;;0.20;0.20;;;;;;;4.20;68.53;100439.00;5094777;28;20020;-77
2024/01/15 01:45:24;;;;;;;0.20;0.20;;;;;;;4.23;68.78;100439.00;5089028;28;20036;-77
2024/01/15 01:47:50;;;;;;;0.20;0.20;;;;;;;4.23;68.31;100438.13;5090772;28;20054;-77
2024/01/15 01:50:17;;;;;;;0.13;0.13;;;;;;;4.23;68.52;100438.13;5088812;28;20036;-77
2024/01/15 01:52:43;;;;;;;0.20;0.20;;;;;;;4.20;68.69;100442.47;5088823;28;20044;-77
2024/01/15 01:55:10;;;;;;;0.20;0.20;;;;;;;4.23;68.65;100438.13;5083832;28;20032;-78
2024/01/15 01:57:36;;;;;;;0.20;0.20;;;;;;;4.26;69.01;100443.34;5084263;28;20043;-77
2024/01/15 02:00:04;;;;;;;0.20;0.20;;;;;;;4.21;68.69;100438.09;5091674;28;20085;-77
2024/01/15 02:02:32;;;;;;;0.20;0.20;;;;;;;4.27;68.88;100432.00;5087771;28;20485;-77
2024/01/15 02:04:58;;;;;;;0.20;0.20;;;;;;;4.26;68.87;100438.09;5092184;28;20061;-77
2024/01/15 02:07:25;;;;;;;0.20;0.20;;;;;;;4.19;68.64;100438.09;5089288;28;20513;-77
2024/01/15 02:09:51;;;;;;;0.20;0.20;;;;;;;4.24;68.70;100439.84;5087735;28;20044;-77
2024/01/15 02:12:18;;;;;;;0.20;0.20;;;;;;;4.23;68.68;100438.13;5092647;28;20028;-77
2024/01/15 02:14:44;;;;;;;0.20;0.20;;;;;;;4.19;68.73;100432.88;5092384;28;20036;-77
2024/01/15 02:17:10;;;;;;;0.20;0.20;;;;;;;4.15;68.78;100425.00;5087004;28;20035;-77
2024/01/15 02:19:36;;;;;;;0.20;0.20;;;;;;;4.08;69.14;100434.63;5094494;28;20027;-77
2024/01/15 02:22:02;;;;;;;0.20;0.20;;;;;;;4.16;69.13;100437.22;5093742;28;20032;-77
2024/01/15 02:24:29;;;;;;;2.40;2.30;;;;;;;4.14;69.29;100439.88;5089024;28;20035;-77
2024/01/15 02:26:55;;;;;;;0.30;0.30;;;;;;;4.13;69.23;100438.09;5092049;28;20107;-78
2024/01/15 02:29:21;;;;;;;0.20;0.20;;;;;;;4.13;68.67;100426.75;5089861;28;20062;-77
2024/01/15 02:31:47;;;;;;;0.20;0.20;;;;;;;4.10;68.57;100425.00;5085384;28;20039;-77
2024/01/15 02:34:14;;;;;;;0.20;0.20;;;;;;;4.12;68.76;100425.00;5090920;28;20441;-77
2024/01/15 02:36:40;;;;;;;0.20;0.20;;;;;;;4.14;68.95;100434.63;5089774;28;20036;-77
2024/01/15 02:39:06;;;;;;;0.20;0.20;;;;;;;4.13;68.50;100427.63;5088561;28;20047;-77
2024/01/15 02:41:32;;;;;;;0.20;0.20;;;;;;;4.12;68.67;100420.63;5091805;28;20111;-77
2024/01/15 02:43:58;;;;;;;2.83;2.67;;;;;;;4.13;68.38;100417.13;5086537;28;20036;-77
2024/01/15 02:46:25;;;;;;;0.20;0.20;;;;;;;4.10;68.34;100417.16;5088977;28;20166;-77
2024/01/15 02:48:51;;;;;;;0.30;0.30;;;;;;;4.11;67.97;100416.28;5082650;28;20028;-77
2024/01/15 02:51:17;;;;;;;0.20;0.20;;;;;;;4.06;68.47;100410.13;5083958;28;20040;-77
2024/01/15 02:53:43;;;;;;;1.92;1.20;;;;;;;3.99;68.58;100417.16;5087504;28;20028;-77
2024/01/15 02:56:09;;;;;;;0.20;0.20;;;;;;;4.03;68.46;100415.41;5079285;28;20024;-77
2024/01/15 02:58:35;;;;;;;0.20;0.20;;;;;;;4.02;68.05;100413.66;5081946;28;20032;-78
2024/01/15 03:01:01;;;;;;;0.20;0.20;;;;;;;4.07;67.91;100427.63;5089230;28;20341;-77
2024/01/15 03:03:28;;;;;;;0.30;0.30;;;;;;;4.03;68.03;100416.25;5083178;28;20060;-77
2024/01/15 03:05:54;;;;;;;0.20;0.20;;;;;;;4.04;68.01;100411.91;5088231;28;20036;-77
2024/01/15 03:08:22;;;;;;;0.20;0.20;;;;;;;4.08;67.77;100412.78;5082312;28;20112;-78
2024/01/15 03:10:48;;;;;;;0.20;0.20;;;;;;;4.06;67.94;100415.38;5089063;28;20024;-77
2024/01/15 03:13:14;;;;;;;0.20;0.20;;;;;;;4.01;68.08;100417.13;5081944;28;20078;-78
2024/01/15 03:15:41;;;;;;;0.20;0.20;;;;;;;4.04;67.44;100411.91;5086988;28;20028;-77
2024/01/15 03:18:07;;;;;;;0.22;0.22;;;;;;;4.09;67.57;100415.41;5085913;28;20471;-78
2024/01/15 03:20:33;;;;;;;0.10;0.10;;;;;;;4.09;68.16;100411.88;5077853;28;20107;-78
2024/01/15 03:22:59;;;;;;;0.20;0.20;;;;;;;4.08;68.13;100403.16;5083420;28;20035;-78
2024/01/15 03:25:25;;;;;;;0.20;0.20;;;;;;;4.09;67.84;100415.41;5075999;28;20500;-78
2024/01/15 03:27:52;;;;;;;0.20;0.20;;;;;;;4.11;67.93;100407.53;5088202;28;20036;-78
2024/01/15 03:30:18;;;;;;;0.20;0.20;;;;;;;4.11;68.23;100403.19;5078795;28;20043;-78
2024/01/15 03:32:44;;;;;;;0.20;0.20;;;;;;;4.17;68.32;100399.66;5092757;28;20035;-77
2024/01/15 03:35:10;;;;;;;2.95;2.70;;;;;;;4.20;68.21;100402.28;5100016;28;20032;-78
2024/01/15 03:37:36;;;;;;;1.65;1.60;;;;;;;4.25;68.21;100397.03;5089244;28;20036;-78
2024/01/15 03:40:03;;;;;;;0.20;0.20;;;;;;;4.25;68.55;100410.13;5087221;28;20065;-77
2024/01/15 03:42:29;;;;;;;0.73;0.73;;;;;;;4.34;68.95;100410.13;5082059;28;20119;-77
2024/01/15 03:44:55;;;;;;;0.20;0.20;;;;;;;4.36;69.01;100413.59;5091372;28;20039;-77
2024/01/15 03:47:21;;;;;;;0.20;0.20;;;;;;;4.36;69.32;100406.63;5088455;28;20032;-76
2024/01/15 03:49:47;;;;;;;0.20;0.20;;;;;;;4.34;69.90;100410.13;5090950;28;20376;-76
2024/01/15 03:52:14;;;;;;;0.13;0.13;;;;;;;4.33;70.09;100406.63;5079837;28;20399;-76
2024/01/15 03:54:40;;;;;;;0.10;0.10;;;;;;;4.37;69.72;100405.75;5081410;28;20024;-77
2024/01/15 03:57:06;;;;;;;0.35;0.35;;;;;;;4.35;69.95;100402.25;5084347;28;20521;-77
2024/01/15 03:59:32;;;;;;;0.20;0.20;;;;;;;4.29;70.25;100388.28;5090773;28;20050;-76
2024/01/15 04:01:58;;;;;;;0.20;0.20;;;;;;;4.18;70.61;100389.16;5078594;28;20020;-77
2024/01/15 04:04:24;;;;;;;0.13;0.13;;;;;;;4.26;70.44;100394.41;5079017;28;20037;-77
2024/01/15 04:06:50;;;;;;;0.20;0.20;;;;;;;4.23;70.24;100391.78;5080158;28;20136;-77
2024/01/15 04:09:17;;;;;;;0.20;0.20;;;;;;;4.25;70.65;100397.91;5089446;28;20039;-77
2024/01/15 04:11:43;;;;;;;0.20;0.20;;;;;;;4.26;70.21;100388.28;5084828;28;20043;-77
2024/01/15 04:14:09;;;;;;;0.20;0.20;;;;;;;4.27;70.12;100398.75;5087195;28;20021;-77
2024/01/15 04:16:36;;;;;;;0.20;0.20;;;;;;;4.31;70.12;100399.63;5077329;28;20085;-76
2024/01/15 04:19:03;;;;;;;0.20;0.20;;;;;;;4.29;70.20;100397.03;5072323;28;20028;-76
2024/01/15 04:21:29;;;;;;;0.20;0.20;;;;;;;4.26;70.11;100386.56;5090157;28;20028;-76
2024/01/15 04:23:55;;;;;;;0.20;0.20;;;;;;;4.23;70.14;100386.53;5088335;28;20066;-76
2024/01/15 04:26:21;;;;;;;0.20;0.20;;;;;;;4.21;69.83;100381.31;5078357;28;20463;-76
2024/01/15 04:28:48;;;;;;;0.20;0.20;;;;;;;4.12;70.55;100373.44;5082634;28;20112;-76
2024/01/15 04:31:26;;;;;;;0.20;0.20;;;;;;;4.22;70.51;100369.06;5081969;28;20445;-76
2024/01/15 04:33:53;;;;;;;0.20;0.20;;;;;;;4.16;70.53;100369.06;5085510;28;20063;-76
2024/01/15 04:36:19;;;;;;;0.20;0.20;;;;;;;4.20;70.43;100366.44;5086238;28;20035;-76
2024/01/15 04:38:45;;;;;;;0.30;0.30;;;;;;;4.25;70.47;100365.53;5081859;28;20038;-76
2024/01/15 04:41:13;;;;;;;0.20;0.20;;;;;;;4.27;70.30;100363.81;5088268;28;20111;-77
2024/01/15 04:43:40;;;;;;;0.20;0.20;;;;;;;4.29;70.36;100359.44;5083544;28;20581;-76
2024/01/15 04:46:07;;;;;;;0.20;0.20;;;;;;;4.28;70.52;100353.31;5088167;28;20423;-76
2024/01/15 04:48:33;;;;;;;0.20;0.20;;;;;;;4.29;70.68;100351.56;5087572;28;20101;-76
2024/01/15 04:51:00;;;;;;;0.20;0.20;;;;;;;4.18;71.30;100356.84;5081446;28;20039;-76
2024/01/15 04:53:26;;;;;;;0.30;0.30;;;;;;;4.20;71.34;100353.31;5085195;28;20036;-77
2024/01/15 04:55:52;;;;;;;0.20;0.20;;;;;;;4.17;70.96;100349.84;5079697;28;20521;-77
2024/01/15 04:58:18;;;;;;;0.20;0.20;;;;;;;4.16;71.15;100346.34;5081979;28;20075;-75
2024/01/15 05:00:44;;;;;;;1.05;1.05;;;;;;;4.10;71.25;100359.47;5085651;28;20081;-75
2024/01/15 05:03:11;;;;;;;0.20;0.20;;;;;;;4.00;71.47;100352.47;5085278;28;20028;-75
2024/01/15 05:05:37;;;;;;;0.25;0.25;;;;;;;3.75;71.50;100352.50;5085825;28;20039;-75
2024/01/15 05:08:03;;;;;;;0.20;0.20;;;;;;;3.56;72.24;100356.84;5079178;28;20501;-76
2024/01/15 05:10:29;;;;;;;0.20;0.20;;;;;;;3.53;72.55;100347.25;5088840;28;20028;-77
2024/01/15 05:12:55;;;;;;;0.20;0.20;;;;;;;3.51;72.25;100341.13;5070740;28;20437;-77
2024/01/15 05:15:22;;;;;;;0.20;0.20;;;;;;;3.55;72.66;100337.66;5085609;28;20038;-77
2024/01/15 05:17:48;;;;;;;0.20;0.20;;;;;;;3.59;72.60;100353.34;5087070;28;20024;-77
2024/01/15 05:20:14;;;;;;;0.15;0.15;;;;;;;3.62;72.58;100342.88;5091631;28;20032;-77
2024/01/15 05:22:40;;;;;;;0.20;0.20;;;;;;;3.60;72.66;100339.38;5087243;28;20021;-77
2024/01/15 05:25:06;;;;;;;0.30;0.30;;;;;;;3.63;72.29;100336.78;5088659;28;20039;-77
2024/01/15 05:27:32;;;;;;;0.20;0.20;;;;;;;3.55;72.38;100339.38;5080105;28;20550;-77
2024/01/15 05:29:59;;;;;;;0.20;0.20;;;;;;;3.52;72.72;100339.38;5089692;28;20080;-77
2024/01/15 05:32:25;;;;;;;0.20;0.20;;;;;;;3.55;72.60;100332.41;5090350;28;20032;-77
2024/01/15 05:34:51;;;;;;;0.20;0.20;;;;;;;3.60;72.82;100339.38;5088695;28;20372;-77
2024/01/15 05:37:17;;;;;;;0.20;0.20;;;;;;;3.53;72.89;100342.00;5093076;28;20438;-77
2024/01/15 05:39:43;;;;;;;0.20;0.20;;;;;;;3.53;72.87;100335.91;5091166;28;20032;-77
2024/01/15 05:42:09;;;;;;;0.22;0.22;;;;;;;3.46;73.21;100340.25;5092817;28;20483;-77
2024/01/15 05:44:35;;;;;;;0.20;0.20;;;;;;;3.43;73.01;100335.00;5094234;28;20035;-76
2024/01/15 05:47:03;;;;;;;0.30;0.30;;;;;;;3.45;72.71;100333.28;5093806;28;20482;-76
2024/01/15 05:49:30;;;;;;;0.20;0.20;;;;;;;3.49;73.16;100331.50;5093089;28;20024;-76
2024/01/15 05:51:56;;;;;;;0.20;0.20;;;;;;;3.51;72.94;100333.25;5088512;28;20032;-77
2024/01/15 05:54:22;;;;;;;0.20;0.20;;;;;;;3.50;73.10;100338.50;5092687;28;20582;-76
2024/01/15 05:56:48;;;;;;;0.20;0.20;;;;;;;3.47;73.15;100328.91;5079547;28;20575;-76
2024/01/15 05:59:15;;;;;;;0.20;0.20;;;;;;;3.43;72.99;100321.91;5090304;28;20111;-76
2024/01/15 06:01:41;;;;;;;0.20;0.20;;;;;;;3.38;73.43;100321.03;5091458;28;20527;-77
2024/01/15 06:04:07;;;;;;;0.22;0.22;;;;;;;3.24;73.88;100323.66;5090564;28;20032;-76
2024/01/15 06:06:33;;;;;;;0.20;0.20;;;;;;;3.25;73.61;100317.50;5084068;28;20047;-77
2024/01/15 06:09:05;;;;;;;0.20;0.20;;;;;;;3.24;73.26;100313.19;5089342;28;20122;-76
2024/01/15 06:11:32;;;;;;;0.20;0.20;;;;;;;3.22;73.46;100315.78;5079734;28;20278;-76
2024/01/15 06:13:58;;;;;;;0.28;0.28;;;;;;;3.23;73.32;100317.53;5088365;28;20129;-77
2024/01/15 06:16:25;;;;;;;0.20;0.20;;;;;;;3.19;73.85;100310.53;5083849;28;20040;-76
2024/01/15 06:18:51;;;;;;;0.20;0.20;;;;;;;3.21;74.14;100303.53;5078142;28;20537;-76
2024/01/15 06:21:17;;;;;;;0.20;0.20;;;;;;;3.24;74.04;100306.19;5085026;28;20702;-76
2024/01/15 06:23:43;;;;;;;0.20;0.20;;;;;;;3.34;73.27;100325.41;5089483;28;20031;-77
2024/01/15 06:26:12;;;;;;;0.20;0.20;;;;;;;3.31;73.45;100345.47;5089068;28;20498;-77
2024/01/15 06:28:38;;;;;;;0.20;0.20;;;;;;;3.30;73.53;100334.13;5092553;28;20122;-76
2024/01/15 06:31:05;;;;;;;0.30;0.30;;;;;;;3.32;73.72;100334.13;5087265;28;20020;-76
2024/01/15 06:33:32;;;;;;;0.20;0.20;;;;;;;3.37;73.39;100340.25;5088762;28;20056;-76
2024/01/15 06:35:58;;;;;;;0.20;0.20;;;;;;;3.30;73.54;100338.47;5090233;28;20067;-76
2024/01/15 06:38:25;;;;;;;0.22;0.22;;;;;;;3.33;73.64;100343.75;5085766;28;20024;-76
2024/01/15 06:40:51;;;;;;;0.20;0.20;;;;;;;3.36;73.24;100341.09;5092004;28;20471;-75
2024/01/15 06:43:18;;;;;;;0.20;0.20;;;;;;;3.22;74.38;100352.41;5085406;28;20024;-77
2024/01/15 06:45:44;;;;;;;0.20;0.20;;;;;;;3.19;74.28;100338.44;5091556;28;20027;-77
2024/01/15 06:48:14;;;;;;;0.20;0.20;;;;;;;3.26;74.47;100332.34;5092500;28;20032;-77
2024/01/15 06:50:40;;;;;;;0.20;0.20;;;;;;;3.37;73.56;100304.44;5091317;28;20054;-77
2024/01/15 06:53:06;;;;;;;0.20;0.20;;;;;;;3.40;73.28;100304.47;5083847;28;20031;-77
2024/01/15 06:55:32;;;;;;;0.20;0.20;;;;;;;3.37;73.49;100317.53;5092290;28;20089;-77
2024/01/15 06:57:58;;;;;;;0.20;0.20;;;;;;;3.39;73.41;100313.19;5083540;28;20031;-77
2024/01/15 07:00:25;;;;;;;0.13;0.13;;;;;;;3.43;73.41;100326.25;5090222;28;20040;-79
2024/01/15 07:02:51;;;;;;;0.25;0.25;;;;;;;3.42;73.00;100343.75;5089220;28;20031;-76
2024/01/15 07:05:18;;;;;;;0.20;0.20;;;;;;;3.39;73.35;100344.59;5088692;28;20032;-76
2024/01/15 07:07:44;;;;;;;0.20;0.20;;;;;;;3.32;73.46;100368.16;5085123;28;20024;-76
2024/01/15 07:10:10;;;;;;;0.20;0.20;;;;;;;3.32;73.07;100373.41;5085638;28;20047;-76
2024/01/15 07:12:36;;;;;;;0.20;0.20;;;;;;;3.08;73.58;100367.25;5092040;28;20050;-76
2024/01/15 07:15:04;;;;;;;0.20;0.20;;;;;;;3.04;73.65;100366.34;5092518;28;20043;-77
2024/01/15 07:17:30;;;;;;;0.20;0.20;;;;;;;3.02;73.76;100362.84;5079419;28;20032;-77
2024/01/15 07:19:57;;;;;;;0.20;0.20;;;;;;;2.88;73.90;100352.34;5079140;28;20036;-77
2024/01/15 07:22:23;;;;;;;0.20;0.20;;;;;;;2.88;73.59;100348.84;5081689;28;20030;-77
2024/01/15 07:24:49;;;;;;;0.25;0.25;;;;;;;2.87;73.72;100345.34;5074745;28;20032;-76
2024/01/15 07:27:15;;;;;;;0.20;0.20;;;;;;;2.96;73.25;100338.41;5073678;28;20040;-77
2024/01/15 07:29:42;;;;;;;0.20;0.20;;;;;;;2.94;73.49;100337.53;5087686;28;20042;-76
2024/01/15 07:32:10;;;;;;;0.22;0.22;;;;;;;2.96;73.50;100335.78;5089299;28;20401;-77
2024/01/15 07:34:36;;;;;;;0.20;0.20;;;;;;;3.00;72.95;100321.84;5091915;28;20050;-77
2024/01/15 07:37:03;;;;;;;0.17;0.17;;;;;;;2.95;73.10;100310.47;5072699;28;20486;-77
2024/01/15 07:39:30;;;;;;;0.20;0.20;;;;;;;2.97;73.41;100317.47;5090035;28;20032;-77
2024/01/15 07:41:56;;;;;;;0.20;0.20;;;;;;;3.04;72.77;100327.09;5094770;28;20055;-77
2024/01/15 07:44:23;;;;;;;0.30;0.30;;;;;;;3.04;72.78;100326.19;5094474;28;20448;-77
2024/01/15 07:46:49;;;;;;;0.28;0.28;;;;;;;3.05;73.03;100338.41;5090567;28;20040;-77
2024/01/15 07:49:16;;;;;;;0.20;0.20;;;;;;;3.09;73.26;100332.34;5082082;28;20051;-77
2024/01/15 07:51:43;;;;;;;0.20;0.20;;;;;;;3.09;73.03;100311.41;5090855;28;20410;-77
2024/01/15 07:54:11;;;;;;;0.20;0.20;;;;;;;3.09;73.66;100324.50;5091503;28;20023;-77
2024/01/15 07:56:59;;;;;;;0.20;0.20;;;;;;;3.21;73.22;100334.97;5091703;28;20032;-77
2024/01/15 07:59:26;;;;;;;0.30;0.30;;;;;;;3.19;73.15;100341.97;5080689;28;20036;-77
2024/01/15 08:01:53;;;;;;;0.20;0.20;;;;;;;3.22;73.20;100341.94;5090249;28;20115;-77
2024/01/15 08:04:19;;;;;;;0.47;0.47;;;;;;;3.21;73.15;100350.66;5072354;28;20399;-76
2024/01/15 08:06:46;;;;;;;0.20;0.20;;;;;;;3.30;72.85;100344.59;5086202;28;20820;-76
2024/01/15 08:09:12;;;;;;;0.20;0.20;;;;;;;3.31;73.60;100348.94;5086451;28;20024;-76
2024/01/15 08:11:41;;;;;;;0.20;0.20;;;;;;;3.37;73.25;100345.47;5084904;28;20112;-77
2024/01/15 08:14:08;;;;;;;0.20;0.20;;;;;;;3.41;73.08;100336.75;5081026;28;20069;-76
2024/01/15 08:16:34;;;;;;;0.30;0.30;;;;;;;3.44;72.99;100355.09;5089864;28;20550;-76
2024/01/15 08:19:00;;;;;;;0.20;0.20;;;;;;;3.44;72.90;100356.81;5087857;28;20161;-76
2024/01/15 08:21:29;;;;;;;0.20;0.20;;;;;;;3.41;73.38;100341.97;5088284;28;20075;-76
2024/01/15 08:23:56;;;;;;;0.20;0.20;;;;;;;3.43;73.39;100349.84;5089556;28;20028;-76
2024/01/15 08:26:23;;;;;;;0.25;0.25;;;;;;;3.42;73.08;100348.97;5085408;28;20062;-77
2024/01/15 08:28:49;;;;;;;0.20;0.20;;;;;;;3.43;73.12;100345.50;5091979;28;20035;-76
2024/01/15 08:31:15;;;;;;;0.20;0.20;;;;;;;3.32;73.70;100339.38;5091214;28;20096;-77
2024/01/15 08:33:41;;;;;;;0.20;0.20;;;;;;;3.37;73.62;100335.00;5088067;28;20029;-77
2024/01/15 08:36:08;;;;;;;0.20;0.20;;;;;;;3.35;73.65;100341.97;5090530;28;20048;-77
2024/01/15 08:38:35;;;;;;;0.20;0.20;;;;;;;3.38;73.76;100335.00;5089305;28;20024;-81
2024/01/15 08:41:01;;;;;;;0.20;0.20;;;;;;;3.49;73.48;100335.03;5090125;28;20027;-77
2024/01/15 08:43:27;;;;;;;0.20;0.20;;;;;;;3.43;74.10;100316.69;5091231;28;20104;-77
2024/01/15 08:45:53;;;;;;;0.20;0.20;;;;;;;3.56;73.77;100313.19;5090555;28;20032;-78
2024/01/15 08:48:20;;;;;;;0.20;0.20;;;;;;;3.51;73.92;100322.78;5091381;28;20062;-77
2024/01/15 08:50:46;;;;;;;0.20;0.20;;;;;;;3.62;73.43;100320.16;5090318;28;20032;-77
2024/01/15 08:53:13;;;;;;;0.65;0.65;;;;;;;3.60;73.70;100326.28;5095076;28;20020;-77
2024/01/15 08:55:39;;;;;;;0.20;0.20;;;;;;;3.70;73.66;100334.16;5086803;28;20082;-78
2024/01/15 08:58:06;;;;;;;0.30;0.30;;;;;;;3.83;73.25;100327.16;5093602;28;20047;-77
2024/01/15 09:00:32;;;;;;;0.20;0.20;;;;;;;3.98;72.80;100341.13;5101086;28;20042;-77
2024/01/15 09:02:58;;;;;;;0.20;0.20;;;;;;;4.05;72.28;100345.50;5105689;28;20020;-77
2024/01/15 09:05:24;;;;;;;0.20;0.20;;;;;;;4.24;72.17;100363.78;5112780;28;20024;-77
2024/01/15 09:07:51;;;;;;;0.20;0.20;;;;;;;4.15;71.67;100373.44;5101188;28;20047;-77
2024/01/15 09:10:18;;;;;;;0.20;0.20;;;;;;;4.09;70.98;100397.03;5098734;28;20032;-77
2024/01/15 09:12:44;;;;;;;0.35;0.35;;;;;;;4.05;71.22;100396.16;5093146;28;20032;-78
2024/01/15 09:15:11;;;;;;;0.30;0.30;;;;;;;3.67;70.62;100378.69;5091658;28;20052;-78
2024/01/15 09:17:37;;;;;;;0.20;0.20;;;;;;;3.60;70.37;100369.09;5089730;28;20381;-78
2024/01/15 09:20:05;;;;;;;0.20;0.20;;;;;;;3.38;70.62;100368.19;5089892;28;20032;-78
2024/01/15 09:22:32;;;;;;;0.20;0.20;;;;;;;3.27;70.97;100375.16;5089184;28;20112;-80
2024/01/15 09:24:58;;;;;;;0.20;0.20;;;;;;;3.33;71.23;100375.16;5085216;28;20604;-78
2024/01/15 09:27:26;;;;;;;0.20;0.20;;;;;;;3.36;70.97;100381.25;5085264;28;20479;-79
2024/01/15 09:29:53;;;;;;;0.20;0.20;;;;;;;3.38;71.65;100371.66;5080608;28;20025;-78
2024/01/15 09:32:19;;;;;;;0.20;0.20;;;;;;;3.37;71.46;100363.81;5078465;28;20035;-78
2024/01/15 09:34:46;;;;;;;0.20;0.20;;;;;;;3.39;72.01;100364.69;5082829;28;20022;-80
2024/01/15 09:37:14;;;;;;;0.20;0.20;;;;;;;3.37;72.25;100361.19;5085141;28;20032;-78
2024/01/15 09:39:41;;;;;;;0.20;0.20;;;;;;;3.43;72.09;100366.44;5090978;28;20406;-78
2024/01/15 09:42:08;;;;;;;0.20;0.20;;;;;;;3.45;72.21;100362.09;5096427;28;20020;-77
2024/01/15 09:44:34;;;;;;;0.20;0.20;;;;;;;3.52;71.84;100361.19;5092904;28;20055;-77
2024/01/15 09:47:02;;;;;;;0.20;0.20;;;;;;;3.50;72.21;100362.06;5097216;28;20402;-77
2024/01/15 09:49:29;;;;;;;0.20;0.20;;;;;;;3.51;72.65;100359.44;5103167;28;20089;-78
2024/01/15 09:51:56;;;;;;;0.20;0.20;;;;;;;3.60;72.66;100369.09;5104038;28;20032;-79
2024/01/15 09:54:23;;;;;;;0.20;0.20;;;;;;;3.62;72.64;100362.09;5105049;28;20414;-80
2024/01/15 09:56:50;;;;;;;0.10;0.10;;;;;;;3.65;72.55;100356.88;5100042;28;20024;-81
2024/01/15 09:59:18;;;;;;;0.20;0.20;;;;;;;3.80;72.50;100356.00;5098289;28;20051;-81
2024/01/15 10:01:47;;;;;;;0.25;0.25;;;;;;;3.87;72.10;100352.47;5100680;28;20020;-79
2024/01/15 10:04:13;;;;;;;0.20;0.20;;;;;;;3.94;72.14;100348.13;5099853;28;20107;-79
2024/01/15 10:06:45;;;;;;;0.20;0.20;;;;;;;3.98;71.73;100356.84;5096886;28;20052;-76
2024/01/15 10:09:14;;;;;;;0.30;0.30;;;;;;;4.00;71.17;100352.47;5095479;28;20035;-77
2024/01/15 10:11:42;;;;;;;0.20;0.20;;;;;;;4.09;70.58;100362.06;5096930;28;20483;-77
2024/01/15 10:14:12;;;;;;;0.13;0.13;;;;;;;4.03;70.44;100358.59;5100446;28;20036;-77
2024/01/15 10:16:39;;;;;;;0.20;0.20;;;;;;;4.08;70.16;100366.44;5100230;28;20482;-78
2024/01/15 10:19:05;;;;;;;0.20;0.20;;;;;;;4.13;70.51;100369.06;5089590;28;20040;-79
2024/01/15 10:21:36;;;;;;;0.20;0.20;;;;;;;4.09;70.50;100368.19;5102964;28;20583;-79
2024/01/15 10:24:04;;;;;;;0.20;0.20;;;;;;;4.25;70.47;100373.41;5103044;28;20054;-80
2024/01/15 10:26:31;;;;;;;0.20;0.20;;;;;;;4.33;70.39;100369.91;5090351;28;20042;-78
2024/01/15 10:28:58;;;;;;;0.20;0.20;;;;;;;4.38;70.32;100367.28;5099809;28;20040;-78
2024/01/15 10:31:26;;;;;;;0.20;0.20;;;;;;;4.36;70.09;100363.78;5097053;28;20030;-81
2024/01/15 10:33:53;;;;;;;0.20;0.20;;;;;;;4.20;70.59;100360.34;5101019;28;20036;-79
2024/01/15 10:36:19;;;;;;;0.10;0.10;;;;;;;4.28;70.32;100369.03;5099970;28;20121;-78
2024/01/15 10:38:46;;;;;;;0.20;0.20;;;;;;;4.27;70.60;100387.41;5099765;28;20617;-77
2024/01/15 10:41:12;;;;;;;0.20;0.20;;;;;;;4.27;70.82;100403.16;5090093;28;20032;-79
2024/01/15 10:43:41;;;;;;;0.10;0.10;;;;;;;4.03;71.44;100392.66;5096560;28;20020;-77
2024/01/15 10:46:08;;;;;;;0.20;0.20;;;;;;;4.09;71.39;100396.16;5093688;28;20039;-77
2024/01/15 10:48:35;;;;;;;0.20;0.20;;;;;;;4.07;71.47;100374.31;5092639;28;20032;-77
2024/01/15 10:51:10;;;;;;;0.73;0.43;;;;;;;4.11;71.43;100371.72;5096871;28;20028;-77
2024/01/15 10:53:39;;;;;;;0.20;0.20;;;;;;;4.15;70.98;100370.81;5103422;28;20036;-77
2024/01/15 10:56:06;;;;;;;0.30;0.30;;;;;;;4.19;71.27;100384.81;5086872;28;20069;-77
2024/01/15 10:58:35;;;;;;;0.20;0.20;;;;;;;4.14;71.70;100376.94;5087221;28;20064;-78
2024/01/15 11:01:05;;;;;;;0.20;0.20;;;;;;;4.33;71.41;100395.28;5093788;28;20038;-78
2024/01/15 11:03:32;;;;;;;0.20;0.20;;;;;;;4.40;71.45;100404.88;5091101;28;20085;-79
2024/01/15 11:06:00;;;;;;;0.20;0.20;;;;;;;4.42;71.50;100400.47;5089918;28;20412;-77
2024/01/15 11:08:26;;;;;;;0.20;0.20;;;;;;;4.56;71.42;100404.84;5091311;28;20028;-77
2024/01/15 11:10:54;;;;;;;0.20;0.20;;;;;;;4.57;71.16;100401.34;5091380;28;20036;-78
2024/01/15 11:13:41;;;;;;;0.28;0.28;;;;;;;4.71;70.88;100389.06;5087100;28;20028;-77
2024/01/15 11:16:10;;;;;;;0.20;0.20;;;;;;;4.63;71.09;100393.44;5088486;28;20032;-78
2024/01/15 11:18:40;;;;;;;0.20;0.20;;;;;;;4.66;70.86;100390.81;5088062;28;20028;-77
2024/01/15 11:21:22;;;;;;;0.20;0.20;;;;;;;4.72;71.07;100392.56;5089852;28;20423;-78
2024/01/15 11:23:49;;;;;;;;;;;;;;;4.88;70.63;100393.38;5102439;28;20111;-77
2024/01/15 11:26:37;;;;;;;0.30;0.30;;;;;;;4.96;71.14;100381.06;5095819;28;19908;-78
2024/01/15 11:29:06;;;;;;;0.20;0.20;;;;;;;5.05;71.69;100391.56;5083666;28;20096;-78
2024/01/15 11:34:12;;;;;;;0.10;0.10;;;;;;;5.48;71.71;100382.56;5116647;27;20408;-78